createdAt,value
2022-11-24T00:00:19.274Z,12.63
2022-11-24T00:02:27.426Z,11.55
2022-11-24T00:04:36.458Z,10.68
2022-11-24T00:06:44.095Z,12.75
2022-11-24T00:08:51.227Z,10.63
2022-11-24T00:10:58.355Z,12.07
2022-11-24T00:13:05.127Z,11.00
2022-11-24T00:15:12.873Z,12.98
2022-11-24T00:17:19.747Z,14.77
2022-11-24T00:19:27.087Z,11.45
2022-11-24T00:21:35.953Z,11.57
2022-11-24T00:23:43.291Z,11.38
2022-11-24T00:25:50.265Z,12.52
2022-11-24T00:27:57.395Z,12.00
2022-11-24T00:30:04.320Z,11.98
2022-11-24T00:32:11.556Z,11.43
2022-11-24T00:34:19.556Z,12.18
2022-11-24T00:36:28.424Z,16.90
2022-11-24T00:38:36.940Z,14.60
2022-11-24T00:40:44.327Z,15.20
2022-11-24T00:42:51.506Z,11.48
2022-11-24T00:44:58.588Z,13.68
2022-11-24T00:47:05.620Z,10.85
2022-11-24T00:49:13.153Z,13.90
2022-11-24T00:51:21.464Z,12.32
2022-11-24T00:53:29.002Z,15.23
2022-11-24T00:55:37.824Z,11.40
2022-11-24T00:57:45.618Z,13.52
2022-11-24T00:59:58.441Z,12.13
2022-11-24T01:02:06.059Z,11.70
2022-11-24T01:04:16.640Z,13.88
2022-11-24T01:06:29.093Z,11.70
2022-11-24T01:08:36.890Z,14.68
2022-11-24T01:10:46.474Z,13.93
2022-11-24T01:12:53.502Z,14.27
2022-11-24T01:15:01.302Z,12.68
2022-11-24T01:17:08.326Z,13.93
2022-11-24T01:19:15.968Z,14.15
2022-11-24T01:21:24.840Z,12.05
2022-11-24T01:23:38.524Z,15.52
2022-11-24T01:25:47.342Z,11.98
2022-11-24T01:27:54.524Z,12.05
2022-11-24T01:30:01.451Z,13.73
2022-11-24T01:32:09.196Z,12.60
2022-11-24T01:34:16.178Z,14.00
2022-11-24T01:36:24.022Z,13.88
2022-11-24T01:38:31.151Z,14.43
2022-11-24T01:40:38.333Z,13.15
2022-11-24T01:42:50.634Z,12.77
2022-11-24T01:45:45.867Z,14.10
2022-11-24T01:47:52.870Z,14.95
2022-11-24T01:50:03.123Z,13.40
2022-11-24T01:52:14.656Z,15.73
2022-11-24T01:54:26.600Z,13.77
2022-11-24T01:56:35.786Z,14.13
2022-11-24T01:58:45.725Z,16.80
2022-11-24T02:00:54.187Z,15.43
2022-11-24T02:03:03.030Z,14.40
2022-11-24T02:05:15.614Z,9.45
2022-11-24T02:07:23.046Z,8.35
2022-11-24T02:09:35.661Z,7.90
2022-11-24T02:11:43.508Z,10.10
2022-11-24T02:13:53.455Z,8.80
2022-11-24T02:16:00.677Z,7.38
2022-11-24T02:18:08.227Z,9.05
2022-11-24T02:20:16.438Z,8.75
2022-11-24T02:22:29.963Z,8.55
2022-11-24T02:24:44.057Z,8.40
2022-11-24T02:26:53.800Z,8.05
2022-11-24T02:29:01.030Z,7.85
2022-11-24T02:31:09.365Z,8.88
2022-11-24T02:33:16.726Z,6.60
2022-11-24T02:35:24.113Z,8.52
2022-11-24T02:37:31.192Z,8.73
2022-11-24T02:39:38.628Z,8.07
2022-11-24T02:41:48.063Z,7.45
2022-11-24T02:43:59.648Z,8.65
2022-11-24T02:46:06.759Z,8.95
2022-11-24T02:48:13.963Z,8.45
2022-11-24T02:50:21.552Z,7.15
2022-11-24T02:52:28.939Z,7.03
2022-11-24T02:54:36.371Z,8.80
2022-11-24T02:56:44.634Z,8.07
2022-11-24T02:58:51.609Z,6.32
2022-11-24T03:01:00.942Z,7.18
2022-11-24T03:03:08.146Z,5.07
2022-11-24T03:05:16.518Z,5.38
2022-11-24T03:07:24.014Z,8.85
2022-11-24T03:09:31.667Z,6.25
2022-11-24T03:11:38.488Z,6.68
2022-11-24T03:13:45.874Z,8.63
2022-11-24T03:15:53.730Z,5.57
2022-11-24T03:18:02.491Z,5.85
2022-11-24T03:20:10.748Z,3.97
2022-11-24T03:22:17.723Z,6.70
2022-11-24T03:24:25.264Z,5.63
2022-11-24T03:26:32.146Z,3.58
2022-11-24T03:28:40.141Z,4.20
2022-11-24T03:30:46.956Z,3.70
2022-11-24T03:32:55.988Z,3.13
2022-11-24T03:35:04.917Z,2.80
2022-11-24T03:37:12.195Z,3.30
2022-11-24T03:39:19.020Z,2.50
2022-11-24T03:41:26.406Z,2.85
2022-11-24T03:43:33.440Z,4.50
2022-11-24T03:45:48.309Z,2.92
2022-11-24T03:47:55.321Z,2.75
2022-11-24T03:50:04.347Z,6.20
2022-11-24T03:52:12.092Z,4.15
2022-11-24T03:54:19.326Z,4.68
2022-11-24T03:56:26.303Z,4.25
2022-11-24T03:58:34.254Z,3.20
2022-11-24T04:00:41.179Z,4.45
2022-11-24T04:02:49.307Z,5.43
2022-11-24T04:04:56.360Z,5.38
2022-11-24T04:07:05.386Z,6.63
2022-11-24T04:09:12.669Z,6.82
2022-11-24T04:11:32.960Z,8.18
2022-11-24T04:13:39.783Z,5.97
2022-11-24T04:15:47.254Z,6.03
2022-11-24T04:17:57.472Z,5.50
2022-11-24T04:20:04.449Z,4.88
2022-11-24T04:22:13.217Z,6.07
2022-11-24T04:24:19.940Z,3.78
2022-11-24T04:26:27.222Z,5.63
2022-11-24T04:28:33.993Z,4.55
2022-11-24T04:30:45.521Z,4.15
2022-11-24T04:32:52.608Z,4.57
2022-11-24T04:34:59.635Z,4.93
2022-11-24T04:37:06.470Z,3.75
2022-11-24T04:39:19.760Z,5.47
2022-11-24T04:41:32.957Z,6.32
2022-11-24T04:43:40.885Z,3.30
2022-11-24T04:45:48.038Z,5.95
2022-11-24T04:47:55.934Z,5.50
2022-11-24T04:50:03.017Z,3.15
2022-11-24T04:52:10.146Z,3.58
2022-11-24T04:54:18.914Z,3.28
2022-11-24T04:56:26.100Z,3.13
2022-11-24T04:58:33.021Z,3.10
2022-11-24T05:00:40.513Z,3.15
2022-11-24T05:02:47.285Z,2.75
2022-11-24T05:04:54.310Z,2.92
2022-11-24T05:07:01.134Z,4.47
2022-11-24T05:09:09.031Z,3.80
2022-11-24T05:11:17.492Z,3.13
2022-11-24T05:13:24.486Z,4.15
2022-11-24T05:15:31.652Z,1.88
2022-11-24T05:17:40.273Z,2.03
2022-11-24T05:19:47.141Z,2.20
2022-11-24T05:21:55.346Z,4.28
2022-11-24T05:24:02.325Z,2.63
2022-11-24T05:26:09.967Z,2.83
2022-11-24T05:28:18.838Z,4.75
2022-11-24T05:30:25.821Z,3.85
2022-11-24T05:32:32.534Z,4.50
2022-11-24T05:34:39.563Z,3.00
2022-11-24T05:36:55.654Z,4.00
2022-11-24T05:39:02.835Z,4.70
2022-11-24T05:41:10.990Z,3.45
2022-11-24T05:43:20.066Z,5.10
2022-11-24T05:45:26.839Z,5.72
2022-11-24T05:47:33.609Z,3.67
2022-11-24T05:49:40.636Z,3.90
2022-11-24T05:51:47.408Z,4.55
2022-11-24T05:53:54.437Z,3.80
2022-11-24T05:56:01.212Z,4.15
2022-11-24T05:58:09.517Z,4.53
2022-11-24T06:00:20.999Z,6.22
2022-11-24T06:02:28.331Z,6.50
2022-11-24T06:04:35.841Z,3.45
2022-11-24T06:06:43.158Z,5.07
2022-11-24T06:08:50.035Z,3.90
2022-11-24T06:11:17.480Z,4.00
2022-11-24T06:13:24.434Z,4.75
2022-11-24T06:15:33.439Z,5.38
2022-11-24T06:17:41.239Z,3.83
2022-11-24T06:19:51.131Z,4.40
2022-11-24T06:21:58.006Z,4.97
2022-11-24T06:24:05.139Z,4.65
2022-11-24T06:26:12.064Z,3.40
2022-11-24T06:28:19.039Z,3.22
2022-11-24T06:30:25.818Z,3.97
2022-11-24T06:32:34.737Z,5.03
2022-11-24T06:34:41.610Z,3.85
2022-11-24T06:36:48.637Z,5.65
2022-11-24T06:38:55.612Z,6.10
2022-11-24T06:41:07.354Z,3.78
2022-11-24T06:43:14.278Z,6.82
2022-11-24T06:45:21.561Z,3.15
2022-11-24T06:47:28.282Z,4.53
2022-11-24T06:49:38.227Z,3.25
2022-11-24T06:51:45.010Z,5.82
2022-11-24T06:53:52.029Z,3.55
2022-11-24T06:56:01.822Z,3.60
2022-11-24T06:58:08.748Z,3.45
2022-11-24T07:00:16.491Z,3.28
2022-11-24T07:02:23.623Z,4.75
2022-11-24T07:04:30.445Z,3.00
2022-11-24T07:06:41.007Z,2.92
2022-11-24T07:08:48.651Z,3.13
2022-11-24T07:10:55.829Z,2.80
2022-11-24T07:13:04.756Z,3.90
2022-11-24T07:15:13.264Z,3.53
2022-11-24T07:17:21.473Z,3.45
2022-11-24T07:19:28.498Z,3.92
2022-11-24T07:21:39.315Z,3.42
2022-11-24T07:23:46.650Z,4.30
2022-11-24T07:25:53.831Z,3.33
2022-11-24T07:28:01.064Z,4.55
2022-11-24T07:30:09.219Z,3.42
2022-11-24T07:32:16.378Z,2.97
2022-11-24T07:34:23.480Z,3.25
2022-11-24T07:36:30.355Z,4.28
2022-11-24T07:38:39.432Z,3.75
2022-11-24T07:40:46.391Z,3.42
2022-11-24T07:42:53.641Z,3.67
2022-11-24T07:45:01.287Z,3.47
2022-11-24T07:47:08.669Z,4.13
2022-11-24T07:49:15.394Z,5.70
2022-11-24T07:51:22.589Z,3.58
2022-11-24T07:53:29.498Z,4.65
2022-11-24T07:55:38.269Z,5.70
2022-11-24T07:57:45.090Z,5.10
2022-11-24T07:59:52.169Z,4.78
2022-11-24T08:01:58.975Z,3.25
2022-11-24T08:04:06.198Z,3.40
2022-11-24T08:06:24.484Z,3.30
2022-11-24T08:08:35.436Z,4.10
2022-11-24T08:10:43.846Z,3.88
2022-11-24T08:12:53.641Z,3.45
2022-11-24T08:15:00.413Z,2.88
2022-11-24T08:17:07.516Z,8.15
2022-11-24T08:19:14.560Z,3.70
2022-11-24T08:21:21.906Z,4.25
2022-11-24T08:23:28.793Z,3.35
2022-11-24T08:25:35.657Z,3.95
2022-11-24T08:27:44.218Z,3.85
2022-11-24T08:29:51.348Z,4.07
2022-11-24T08:31:58.480Z,3.17
2022-11-24T08:34:06.584Z,4.22
2022-11-24T08:36:15.351Z,5.38
2022-11-24T08:38:22.497Z,3.90
2022-11-24T08:40:29.560Z,3.30
2022-11-24T08:42:36.744Z,3.50
2022-11-24T08:44:45.766Z,4.10
2022-11-24T08:46:53.144Z,3.95
2022-11-24T08:48:59.981Z,3.85
2022-11-24T08:51:11.564Z,4.13
2022-11-24T08:53:18.487Z,3.80
2022-11-24T08:55:25.619Z,3.40
2022-11-24T08:57:33.620Z,3.95
2022-11-24T08:59:40.801Z,4.07
2022-11-24T09:01:50.255Z,3.53
2022-11-24T09:03:58.114Z,7.32
2022-11-24T09:06:05.726Z,3.60
2022-11-24T09:08:12.703Z,3.88
2022-11-24T09:10:19.881Z,5.35
2022-11-24T09:12:27.065Z,3.90
2022-11-24T09:14:37.830Z,5.43
2022-11-24T09:16:45.153Z,4.38
2022-11-24T09:18:59.106Z,5.65
2022-11-24T09:21:13.250Z,5.13
2022-11-24T09:23:20.125Z,4.10
2022-11-24T09:25:27.360Z,4.40
2022-11-24T09:27:34.130Z,4.90
2022-11-24T09:29:41.415Z,5.50
2022-11-24T09:31:48.448Z,7.97
2022-11-24T09:33:57.775Z,7.97
2022-11-24T09:36:05.109Z,7.30
2022-11-24T09:38:12.754Z,7.60
2022-11-24T09:40:20.652Z,6.28
2022-11-24T09:42:38.332Z,8.43
2022-11-24T09:45:01.126Z,6.93
2022-11-24T09:47:19.063Z,5.18
2022-11-24T09:49:34.816Z,5.07
2022-11-24T09:51:43.772Z,5.45
2022-11-24T09:53:56.016Z,4.80
2022-11-24T09:56:06.319Z,6.13
2022-11-24T09:58:40.177Z,5.25
2022-11-24T10:00:47.568Z,4.78
2022-11-24T10:02:54.798Z,4.38
2022-11-24T10:05:03.613Z,5.70
2022-11-24T10:07:22.346Z,4.80
2022-11-24T10:09:48.752Z,5.40
2022-11-24T10:12:05.660Z,7.07
2022-11-24T10:14:30.151Z,5.82
2022-11-24T10:16:50.048Z,6.28
2022-11-24T10:19:14.157Z,6.43
2022-11-24T10:21:40.285Z,4.47
2022-11-24T10:24:02.059Z,6.68
2022-11-24T10:28:19.189Z,5.93
2022-11-24T10:30:27.086Z,6.00
2022-11-24T10:32:39.846Z,5.53
2022-11-24T10:34:49.894Z,6.25
2022-11-24T10:37:04.860Z,4.03
2022-11-24T10:39:18.696Z,7.75
2022-11-24T10:41:34.273Z,6.00
2022-11-24T10:43:43.811Z,7.55
2022-11-24T10:45:51.651Z,9.50
2022-11-24T10:48:00.480Z,5.60
2022-11-24T10:50:16.792Z,6.00
2022-11-24T10:52:28.206Z,6.47
2022-11-24T10:56:44.614Z,5.95
2022-11-24T10:58:51.745Z,7.22
2022-11-24T11:00:59.827Z,6.88
2022-11-24T11:03:21.776Z,7.00
2022-11-24T11:05:44.409Z,8.88
2022-11-24T11:07:53.370Z,5.80
2022-11-24T11:10:22.041Z,8.63
2022-11-24T11:12:47.908Z,7.88
2022-11-24T11:14:54.875Z,9.55
2022-11-24T11:17:02.620Z,7.25
2022-11-24T11:22:05.215Z,9.45
2022-11-24T11:24:19.523Z,9.32
2022-11-24T11:26:37.345Z,8.70
2022-11-24T11:28:44.423Z,8.10
2022-11-24T11:31:19.127Z,14.10
2022-11-24T11:35:56.814Z,7.43
2022-11-24T11:38:07.731Z,8.05
2022-11-24T11:40:20.748Z,8.05
2022-11-24T11:45:07.266Z,8.80
2022-11-24T11:47:21.464Z,8.93
2022-11-24T11:49:29.158Z,9.63
2022-11-24T11:52:13.661Z,11.18
2022-11-24T11:54:30.058Z,12.43
2022-11-24T11:56:45.433Z,15.10
2022-11-24T11:59:37.262Z,12.95
2022-11-24T12:02:16.315Z,14.48
2022-11-24T12:04:29.825Z,13.52
2022-11-24T12:06:53.897Z,13.93
2022-11-24T12:09:27.345Z,15.20
2022-11-24T12:11:44.003Z,13.15
2022-11-24T12:14:02.751Z,13.50
2022-11-24T12:16:19.145Z,12.90
2022-11-24T12:21:13.345Z,12.90
2022-11-24T12:23:30.267Z,14.75
2022-11-24T12:25:41.790Z,14.20
2022-11-24T12:28:03.305Z,14.30
2022-11-24T12:30:16.121Z,15.20
2022-11-24T12:32:35.537Z,14.68
2022-11-24T12:34:53.932Z,14.05
2022-11-24T12:37:27.586Z,14.50
2022-11-24T12:39:38.300Z,12.63
2022-11-24T12:41:57.720Z,11.63
2022-11-24T12:44:07.766Z,13.18
2022-11-24T12:46:22.707Z,13.40
2022-11-24T12:48:42.010Z,14.65
2022-11-24T12:50:50.098Z,11.63
2022-11-24T12:53:02.377Z,16.15
2022-11-24T12:55:17.483Z,14.40
2022-11-24T12:57:30.334Z,15.65
2022-11-24T12:59:46.528Z,15.55
2022-11-24T13:02:00.040Z,13.52
2022-11-24T13:04:18.961Z,13.63
2022-11-24T13:06:31.161Z,13.25
2022-11-24T13:10:55.931Z,12.85
2022-11-24T13:13:05.505Z,12.20
2022-11-24T13:15:43.593Z,12.75
2022-11-24T13:18:05.093Z,12.20
2022-11-24T13:20:25.170Z,12.88
2022-11-24T13:22:32.654Z,11.63
2022-11-24T13:24:41.421Z,13.05
2022-11-24T13:26:50.057Z,12.73
2022-11-24T13:29:23.708Z,14.48
2022-11-24T13:31:34.182Z,12.18
2022-11-24T13:33:42.762Z,12.75
2022-11-24T13:36:33.934Z,12.50
2022-11-24T13:38:54.118Z,13.95
2022-11-24T13:41:21.274Z,12.55
2022-11-24T13:43:28.237Z,12.77
2022-11-24T13:45:53.390Z,14.60
2022-11-24T13:48:02.366Z,12.85
2022-11-24T13:50:12.261Z,14.63
2022-11-24T13:52:42.329Z,12.88
2022-11-24T13:54:49.155Z,14.40
2022-11-24T13:57:16.303Z,16.80
2022-11-24T13:59:34.389Z,13.77
2022-11-24T14:01:43.533Z,12.95
2022-11-24T14:06:33.772Z,13.82
2022-11-24T14:11:18.392Z,14.43
2022-11-24T14:13:34.114Z,12.10
2022-11-24T14:15:41.074Z,13.43
2022-11-24T14:17:48.027Z,14.20
2022-11-24T14:19:57.924Z,14.88
2022-11-24T14:22:05.156Z,13.57
2022-11-24T14:24:21.452Z,14.02
2022-11-24T14:26:34.878Z,15.52
2022-11-24T14:28:41.699Z,15.05
2022-11-24T14:30:48.936Z,15.02
2022-11-24T14:32:59.609Z,13.63
2022-11-24T14:35:25.497Z,12.73
2022-11-24T14:37:32.498Z,11.13
2022-11-24T14:39:44.490Z,11.70
2022-11-24T14:44:19.269Z,12.05
2022-11-24T14:46:26.122Z,16.33
2022-11-24T14:48:34.864Z,13.77
2022-11-24T14:50:44.506Z,13.05
2022-11-24T14:52:58.412Z,15.27
2022-11-24T14:55:25.710Z,13.75
2022-11-24T14:57:36.021Z,13.68
2022-11-24T14:59:43.042Z,14.13
2022-11-24T15:01:51.029Z,16.23
2022-11-24T15:04:32.858Z,13.68
2022-11-24T15:06:50.415Z,14.23
2022-11-24T15:08:57.179Z,14.27
2022-11-24T15:11:06.359Z,14.15
2022-11-24T15:13:22.302Z,15.93
2022-11-24T15:15:35.836Z,14.43
2022-11-24T15:17:50.593Z,14.05
2022-11-24T15:20:06.991Z,15.52
2022-11-24T15:22:50.523Z,14.50
2022-11-24T15:24:58.726Z,13.40
2022-11-24T15:27:06.567Z,16.13
2022-11-24T15:29:14.328Z,17.77
2022-11-24T15:31:21.633Z,14.27
2022-11-24T15:33:30.144Z,13.77
2022-11-24T15:35:37.345Z,15.38
2022-11-24T15:37:44.526Z,18.02
2022-11-24T15:39:53.038Z,14.00
2022-11-24T15:42:00.119Z,12.80
2022-11-24T15:44:07.195Z,15.52
2022-11-24T15:46:14.148Z,13.02
2022-11-24T15:48:20.949Z,14.90
2022-11-24T15:50:28.727Z,14.32
2022-11-24T15:52:35.648Z,12.50
2022-11-24T15:54:42.796Z,12.38
2022-11-24T15:56:51.564Z,12.35
2022-11-24T15:58:58.643Z,12.32
2022-11-24T16:01:05.481Z,11.73
2022-11-24T16:03:45.180Z,12.13
2022-11-24T16:05:42.188Z,15.20
2022-11-24T16:07:49.763Z,12.93
2022-11-24T16:09:56.568Z,12.45
2022-11-24T16:12:05.848Z,14.02
2022-11-24T16:14:12.562Z,12.98
2022-11-24T16:16:19.702Z,12.30
2022-11-24T16:18:26.574Z,15.30
2022-11-24T16:20:36.725Z,13.45
2022-11-24T16:22:43.499Z,14.98
2022-11-24T16:24:50.510Z,14.48
2022-11-24T16:26:58.271Z,12.10
2022-11-24T16:29:07.144Z,13.35
2022-11-24T16:31:16.659Z,12.27
2022-11-24T16:33:23.656Z,12.23
2022-11-24T16:35:30.327Z,15.73
2022-11-24T16:37:37.455Z,12.25
2022-11-24T16:39:49.859Z,12.73
2022-11-24T16:41:57.451Z,12.70
2022-11-24T16:44:05.913Z,14.60
2022-11-24T16:46:22.083Z,11.88
2022-11-24T16:48:28.827Z,12.02
2022-11-24T16:50:36.724Z,12.48
2022-11-24T16:52:43.445Z,11.52
2022-11-24T16:54:50.474Z,13.98
2022-11-24T16:56:58.220Z,12.40
2022-11-24T16:59:07.447Z,15.10
2022-11-24T17:01:15.717Z,11.95
2022-11-24T17:03:23.245Z,13.10
2022-11-24T17:05:30.119Z,12.57
2022-11-24T17:07:37.272Z,13.93
2022-11-24T17:09:45.260Z,12.82
2022-11-24T17:11:52.434Z,12.57
2022-11-24T17:14:00.618Z,12.65
2022-11-24T17:16:11.741Z,10.85
2022-11-24T17:18:26.560Z,10.75
2022-11-24T17:20:33.499Z,10.93
2022-11-24T17:22:40.270Z,10.35
2022-11-24T17:24:47.452Z,10.82
2022-11-24T17:26:54.584Z,11.82
2022-11-24T17:29:01.865Z,9.70
2022-11-24T17:31:18.990Z,9.23
2022-11-24T17:33:26.212Z,11.05
2022-11-24T17:35:32.781Z,10.45
2022-11-24T17:37:39.690Z,12.15
2022-11-24T17:40:05.685Z,12.43
2022-11-24T17:42:14.311Z,10.60
2022-11-24T17:44:21.167Z,12.65
2022-11-24T17:46:31.422Z,11.38
2022-11-24T17:48:40.189Z,11.30
2022-11-24T17:50:47.475Z,12.95
2022-11-24T17:52:54.211Z,10.85
2022-11-24T17:55:01.483Z,11.23
2022-11-24T17:57:08.457Z,13.20
2022-11-24T17:59:16.171Z,12.57
2022-11-24T18:01:24.021Z,9.30
2022-11-24T18:03:33.637Z,12.48
2022-11-24T18:05:40.663Z,11.45
2022-11-24T18:07:48.091Z,11.80
2022-11-24T18:09:54.979Z,13.27
2022-11-24T18:12:02.262Z,11.30
2022-11-24T18:14:08.932Z,12.70
2022-11-24T18:16:16.245Z,10.82
2022-11-24T18:18:23.058Z,10.88
2022-11-24T18:20:31.960Z,10.45
2022-11-24T18:25:05.678Z,15.20
2022-11-24T18:27:12.498Z,10.73
2022-11-24T18:29:19.427Z,11.52
2022-11-24T18:31:27.176Z,10.38
2022-11-24T18:33:34.811Z,13.18
2022-11-24T18:35:43.428Z,14.85
2022-11-24T18:37:50.508Z,12.50
2022-11-24T18:39:57.334Z,13.48
2022-11-24T18:42:04.409Z,14.73
2022-11-24T18:44:11.539Z,12.45
2022-11-24T18:46:19.845Z,12.68
2022-11-24T18:48:27.850Z,14.80
2022-11-24T18:50:35.234Z,11.35
2022-11-24T18:52:43.901Z,12.13
2022-11-24T18:54:51.083Z,11.77
2022-11-24T18:57:02.971Z,13.95
2022-11-24T18:59:10.722Z,11.68
2022-11-24T19:01:19.924Z,12.70
2022-11-24T19:03:27.030Z,15.85
2022-11-24T19:05:33.852Z,14.10
2022-11-24T19:07:43.253Z,15.15
2022-11-24T19:09:50.213Z,12.75
2022-11-24T19:11:57.240Z,12.98
2022-11-24T19:14:04.778Z,13.80
2022-11-24T19:16:15.760Z,13.95
2022-11-24T19:18:22.881Z,13.38
2022-11-24T19:20:29.960Z,14.18
2022-11-24T19:22:36.631Z,14.32
2022-11-24T19:24:46.221Z,15.35
2022-11-24T19:26:53.092Z,14.90
2022-11-24T19:29:00.120Z,15.93
2022-11-24T19:31:08.482Z,16.45
2022-11-24T19:33:15.353Z,16.67
2022-11-24T19:35:22.076Z,14.48
2022-11-24T19:37:30.382Z,18.50
2022-11-24T19:39:37.259Z,15.70
2022-11-24T19:41:46.333Z,14.55
2022-11-24T19:43:54.333Z,17.73
2022-11-24T19:46:04.576Z,19.25
2022-11-24T19:48:11.362Z,15.30
2022-11-24T19:50:18.645Z,14.38
2022-11-24T19:52:25.569Z,16.45
2022-11-24T19:54:34.248Z,16.55
2022-11-24T19:56:42.338Z,16.85
2022-11-24T19:58:51.466Z,16.25
2022-11-24T20:00:58.556Z,18.58
2022-11-24T20:03:05.675Z,16.98
2022-11-24T20:05:12.653Z,16.50
2022-11-24T20:07:21.314Z,15.80
2022-11-24T20:09:28.296Z,17.85
2022-11-24T20:11:35.272Z,19.08
2022-11-24T20:13:43.172Z,16.10
2022-11-24T20:15:51.888Z,16.08
2022-11-24T20:17:59.018Z,13.98
2022-11-24T20:20:05.893Z,16.05
2022-11-24T20:22:12.922Z,18.42
2022-11-24T20:24:21.537Z,19.08
2022-11-24T20:26:29.690Z,17.35
2022-11-24T20:28:36.667Z,16.25
2022-11-24T20:30:43.798Z,18.00
2022-11-24T20:32:52.312Z,18.73
2022-11-24T20:34:59.338Z,15.52
2022-11-24T20:37:06.985Z,18.98
2022-11-24T20:39:16.773Z,21.13
2022-11-24T20:41:26.158Z,17.65
2022-11-24T20:43:33.852Z,17.42
2022-11-24T20:45:40.995Z,16.75
2022-11-24T20:47:47.809Z,20.23
2022-11-24T20:49:56.573Z,17.48
2022-11-24T20:52:03.601Z,18.65
2022-11-24T20:54:11.810Z,19.52
2022-11-24T20:56:20.835Z,17.98
2022-11-24T20:58:27.809Z,17.67
2022-11-24T21:00:34.581Z,18.67
2022-11-24T21:02:41.894Z,19.13
2022-11-24T21:04:48.535Z,16.90
2022-11-24T21:06:57.866Z,18.83
2022-11-24T21:09:04.691Z,20.13
2022-11-24T21:11:13.824Z,20.55
2022-11-24T21:13:20.591Z,19.58
2022-11-24T21:15:27.567Z,18.85
2022-11-24T21:17:36.182Z,19.35
2022-11-24T21:19:43.260Z,19.23
2022-11-24T21:21:50.242Z,18.38
2022-11-24T21:23:59.112Z,22.10
2022-11-24T21:26:11.480Z,20.27
2022-11-24T21:28:22.586Z,20.05
2022-11-24T21:30:29.717Z,18.15
2022-11-24T21:32:36.592Z,21.40
2022-11-24T21:34:43.312Z,21.95
2022-11-24T21:36:51.107Z,21.77
2022-11-24T21:39:00.381Z,18.38
2022-11-24T21:41:09.260Z,19.80
2022-11-24T21:43:16.133Z,19.95
2022-11-24T21:45:23.290Z,20.85
2022-11-24T21:47:30.088Z,19.98
2022-11-24T21:49:37.065Z,20.75
2022-11-24T21:51:43.838Z,22.13
2022-11-24T21:53:51.172Z,20.58
2022-11-24T21:56:03.424Z,22.38
2022-11-24T21:58:10.654Z,22.40
2022-11-24T22:00:18.553Z,21.25
2022-11-24T22:02:25.540Z,24.55
2022-11-24T22:04:32.313Z,23.42
2022-11-24T22:06:39.482Z,21.80
2022-11-24T22:08:46.207Z,22.95
2022-11-24T22:10:53.745Z,19.80
2022-11-24T22:13:02.154Z,23.05
2022-11-24T22:15:10.007Z,22.10
2022-11-24T22:17:16.723Z,20.83
2022-11-24T22:19:23.955Z,21.60
2022-11-24T22:21:34.157Z,21.35
2022-11-24T22:23:41.186Z,20.52
2022-11-24T22:25:47.958Z,22.52
2022-11-24T22:27:54.936Z,21.48
2022-11-24T22:30:03.601Z,21.38
2022-11-24T22:32:10.718Z,22.20
2022-11-24T22:34:17.403Z,24.35
2022-11-24T22:36:25.713Z,23.73
2022-11-24T22:38:33.300Z,26.08
2022-11-24T22:40:40.431Z,22.67
2022-11-24T22:42:47.408Z,21.83
2022-11-24T22:44:54.128Z,24.10
2022-11-24T22:47:02.796Z,25.63
2022-11-24T22:49:09.568Z,22.10
2022-11-24T22:51:18.902Z,21.52
2022-11-24T22:53:25.620Z,21.63
2022-11-24T22:55:32.700Z,20.77
2022-11-24T22:57:39.419Z,21.80
2022-11-24T22:59:46.447Z,17.50
2022-11-24T23:01:53.117Z,18.52
2022-11-24T23:04:02.163Z,20.92
2022-11-24T23:06:10.349Z,21.85
2022-11-24T23:08:17.385Z,20.13
2022-11-24T23:10:24.253Z,20.42
2022-11-24T23:12:31.536Z,23.85
2022-11-24T23:14:38.255Z,24.55
2022-11-24T23:16:46.148Z,19.42
2022-11-24T23:18:54.204Z,22.05
2022-11-24T23:21:08.965Z,19.52
2022-11-24T23:23:15.841Z,20.98
2022-11-24T23:25:22.765Z,21.23
2022-11-24T23:27:29.486Z,18.65
2022-11-24T23:29:36.566Z,23.60
2022-11-24T23:31:43.363Z,20.08
2022-11-24T23:33:50.839Z,24.10
2022-11-24T23:35:57.546Z,23.67
2022-11-24T23:38:07.717Z,19.55
2022-11-24T23:40:15.545Z,24.17
2022-11-24T23:42:22.573Z,17.63
2022-11-24T23:44:30.266Z,19.23
2022-11-24T23:46:37.449Z,22.45
2022-11-24T23:48:44.378Z,19.65
2022-11-24T23:50:51.503Z,17.45
2022-11-24T23:52:58.429Z,13.30
2022-11-24T23:55:07.557Z,13.80
2022-11-24T23:57:14.277Z,16.80
2022-11-24T23:59:21.767Z,19.13
